sensor_id;sensor_type;location;lat;lon;timestamp;temperature;humidity
71142;DHT22;58808;59.366;17.970;2023-03-07T00:02:21;-3.50;99.90
71142;DHT22;58808;59.366;17.970;2023-03-07T00:04:47;-3.60;99.90
71142;DHT22;58808;59.366;17.970;2023-03-07T00:07:14;-3.50;99.90
71142;DHT22;58808;59.366;17.970;2023-03-07T00:09:39;-3.50;99.90
71142;DHT22;58808;59.366;17.970;2023-03-07T00:12:07;-3.50;99.90
71142;DHT22;58808;59.366;17.970;2023-03-07T00:14:33;-3.40;99.90
71142;DHT22;58808;59.366;17.970;2023-03-07T00:16:59;-3.40;99.90
71142;DHT22;58808;59.366;17.970;2023-03-07T00:19:24;-3.40;99.90
71142;DHT22;58808;59.366;17.970;2023-03-07T00:21:50;-3.40;99.90
71142;DHT22;58808;59.366;17.970;2023-03-07T00:24:16;-3.40;99.90
71142;DHT22;58808;59.366;17.970;2023-03-07T00:26:42;-3.50;99.90
71142;DHT22;58808;59.366;17.970;2023-03-07T00:29:08;-3.50;99.90
71142;DHT22;58808;59.366;17.970;2023-03-07T00:31:34;-3.60;99.90
71142;DHT22;58808;59.366;17.970;2023-03-07T00:34:00;-3.60;99.90
71142;DHT22;58808;59.366;17.970;2023-03-07T00:36:26;-3.70;99.90
71142;DHT22;58808;59.366;17.970;2023-03-07T00:38:53;-3.70;99.90
71142;DHT22;58808;59.366;17.970;2023-03-07T00:41:24;-3.70;99.90
71142;DHT22;58808;59.366;17.970;2023-03-07T00:43:51;-3.70;99.90
71142;DHT22;58808;59.366;17.970;2023-03-07T00:46:19;-3.70;99.90
71142;DHT22;58808;59.366;17.970;2023-03-07T00:48:45;-3.70;99.90
71142;DHT22;58808;59.366;17.970;2023-03-07T00:51:14;-3.70;99.90
71142;DHT22;58808;59.366;17.970;2023-03-07T00:53:40;-3.80;99.90
71142;DHT22;58808;59.366;17.970;2023-03-07T00:58:39;-3.70;99.90
71142;DHT22;58808;59.366;17.970;2023-03-07T01:01:07;-3.60;99.90
71142;DHT22;58808;59.366;17.970;2023-03-07T01:03:34;-3.60;99.90
71142;DHT22;58808;59.366;17.970;2023-03-07T01:06:05;-3.60;99.90
71142;DHT22;58808;59.366;17.970;2023-03-07T01:08:32;-3.60;99.90
71142;DHT22;58808;59.366;17.970;2023-03-07T01:11:00;-3.60;99.90
71142;DHT22;58808;59.366;17.970;2023-03-07T01:13:26;-3.60;99.90
71142;DHT22;58808;59.366;17.970;2023-03-07T01:15:53;-3.60;99.90
71142;DHT22;58808;59.366;17.970;2023-03-07T01:18:19;-3.60;99.90
71142;DHT22;58808;59.366;17.970;2023-03-07T01:20:44;-3.60;99.90
71142;DHT22;58808;59.366;17.970;2023-03-07T01:23:10;-3.60;99.90
71142;DHT22;58808;59.366;17.970;2023-03-07T01:25:40;-3.60;99.90
71142;DHT22;58808;59.366;17.970;2023-03-07T01:28:08;-3.60;99.90
71142;DHT22;58808;59.366;17.970;2023-03-07T01:30:34;-3.60;99.90
71142;DHT22;58808;59.366;17.970;2023-03-07T01:33:01;-3.70;99.90
71142;DHT22;58808;59.366;17.970;2023-03-07T01:35:27;-3.70;99.90
71142;DHT22;58808;59.366;17.970;2023-03-07T01:37:53;-3.70;99.90
71142;DHT22;58808;59.366;17.970;2023-03-07T01:40:21;-3.70;99.90
71142;DHT22;58808;59.366;17.970;2023-03-07T01:42:47;-3.70;99.90
71142;DHT22;58808;59.366;17.970;2023-03-07T01:47:39;-3.80;99.90
71142;DHT22;58808;59.366;17.970;2023-03-07T01:50:09;-3.70;99.90
71142;DHT22;58808;59.366;17.970;2023-03-07T01:52:42;-3.80;99.90
71142;DHT22;58808;59.366;17.970;2023-03-07T01:55:15;-3.80;99.90
71142;DHT22;58808;59.366;17.970;2023-03-07T01:57:44;-3.80;99.90
71142;DHT22;58808;59.366;17.970;2023-03-07T02:00:14;-3.80;99.90
71142;DHT22;58808;59.366;17.970;2023-03-07T02:02:46;-3.90;99.90
71142;DHT22;58808;59.366;17.970;2023-03-07T02:05:21;-3.90;99.90
71142;DHT22;58808;59.366;17.970;2023-03-07T02:07:51;-3.90;99.90
71142;DHT22;58808;59.366;17.970;2023-03-07T02:10:20;-3.90;99.90
71142;DHT22;58808;59.366;17.970;2023-03-07T02:12:47;-3.80;99.90
71142;DHT22;58808;59.366;17.970;2023-03-07T02:15:14;-3.80;99.90
71142;DHT22;58808;59.366;17.970;2023-03-07T02:17:41;-3.80;99.90
71142;DHT22;58808;59.366;17.970;2023-03-07T02:22:56;-3.80;99.90
71142;DHT22;58808;59.366;17.970;2023-03-07T02:27:54;-3.90;99.90
71142;DHT22;58808;59.366;17.970;2023-03-07T02:30:21;-3.90;99.90
71142;DHT22;58808;59.366;17.970;2023-03-07T02:32:49;-3.90;99.90
71142;DHT22;58808;59.366;17.970;2023-03-07T02:35:20;-3.90;99.90
71142;DHT22;58808;59.366;17.970;2023-03-07T02:37:50;-3.90;99.90
71142;DHT22;58808;59.366;17.970;2023-03-07T02:40:18;-3.90;99.90
71142;DHT22;58808;59.366;17.970;2023-03-07T02:42:45;-4.00;99.90
71142;DHT22;58808;59.366;17.970;2023-03-07T02:45:16;-4.10;99.90
71142;DHT22;58808;59.366;17.970;2023-03-07T02:47:42;-4.10;99.90
71142;DHT22;58808;59.366;17.970;2023-03-07T02:50:09;-4.20;99.90
71142;DHT22;58808;59.366;17.970;2023-03-07T02:52:35;-4.30;99.90
71142;DHT22;58808;59.366;17.970;2023-03-07T02:55:01;-4.30;99.90
71142;DHT22;58808;59.366;17.970;2023-03-07T02:57:26;-4.40;99.90
71142;DHT22;58808;59.366;17.970;2023-03-07T02:59:52;-4.40;99.90
71142;DHT22;58808;59.366;17.970;2023-03-07T03:02:18;-4.40;99.90
71142;DHT22;58808;59.366;17.970;2023-03-07T03:04:44;-4.50;99.90
71142;DHT22;58808;59.366;17.970;2023-03-07T03:07:09;-4.50;99.90
71142;DHT22;58808;59.366;17.970;2023-03-07T03:09:35;-4.50;99.90
71142;DHT22;58808;59.366;17.970;2023-03-07T03:12:01;-4.60;99.90
71142;DHT22;58808;59.366;17.970;2023-03-07T03:14:27;-4.60;99.90
71142;DHT22;58808;59.366;17.970;2023-03-07T03:16:52;-4.60;99.90
71142;DHT22;58808;59.366;17.970;2023-03-07T03:19:19;-4.60;99.90
71142;DHT22;58808;59.366;17.970;2023-03-07T03:21:45;-4.50;99.90
71142;DHT22;58808;59.366;17.970;2023-03-07T03:24:11;-4.50;99.90
71142;DHT22;58808;59.366;17.970;2023-03-07T03:26:37;-4.50;99.90
71142;DHT22;58808;59.366;17.970;2023-03-07T03:29:03;-4.60;99.90
71142;DHT22;58808;59.366;17.970;2023-03-07T03:31:30;-4.60;99.90
71142;DHT22;58808;59.366;17.970;2023-03-07T03:33:57;-4.60;99.90
71142;DHT22;58808;59.366;17.970;2023-03-07T03:36:24;-4.60;99.90
71142;DHT22;58808;59.366;17.970;2023-03-07T03:38:58;-4.50;99.90
71142;DHT22;58808;59.366;17.970;2023-03-07T03:41:25;-4.50;99.90
71142;DHT22;58808;59.366;17.970;2023-03-07T03:43:51;-4.40;99.90
71142;DHT22;58808;59.366;17.970;2023-03-07T03:46:17;-4.40;99.90
71142;DHT22;58808;59.366;17.970;2023-03-07T03:48:53;-4.40;99.90
71142;DHT22;58808;59.366;17.970;2023-03-07T03:51:20;-4.40;99.90
71142;DHT22;58808;59.366;17.970;2023-03-07T03:53:46;-4.40;99.90
71142;DHT22;58808;59.366;17.970;2023-03-07T03:56:14;-4.40;99.90
71142;DHT22;58808;59.366;17.970;2023-03-07T03:58:40;-4.40;99.90
71142;DHT22;58808;59.366;17.970;2023-03-07T04:01:08;-4.50;99.90
71142;DHT22;58808;59.366;17.970;2023-03-07T04:03:36;-4.40;99.90
71142;DHT22;58808;59.366;17.970;2023-03-07T04:06:05;-4.40;99.90
71142;DHT22;58808;59.366;17.970;2023-03-07T04:08:33;-4.50;99.90
71142;DHT22;58808;59.366;17.970;2023-03-07T04:10:59;-4.50;99.90
71142;DHT22;58808;59.366;17.970;2023-03-07T04:13:25;-4.50;99.90
71142;DHT22;58808;59.366;17.970;2023-03-07T04:15:51;-4.50;99.90
71142;DHT22;58808;59.366;17.970;2023-03-07T04:18:20;-4.50;99.90
71142;DHT22;58808;59.366;17.970;2023-03-07T04:20:47;-4.60;99.90
71142;DHT22;58808;59.366;17.970;2023-03-07T04:23:15;-4.60;99.90
71142;DHT22;58808;59.366;17.970;2023-03-07T04:25:49;-4.60;99.90
71142;DHT22;58808;59.366;17.970;2023-03-07T04:28:16;-4.70;99.90
71142;DHT22;58808;59.366;17.970;2023-03-07T04:30:42;-4.70;99.90
71142;DHT22;58808;59.366;17.970;2023-03-07T04:33:07;-4.70;99.90
71142;DHT22;58808;59.366;17.970;2023-03-07T04:35:33;-4.70;99.90
71142;DHT22;58808;59.366;17.970;2023-03-07T04:37:59;-4.80;99.90
71142;DHT22;58808;59.366;17.970;2023-03-07T04:40:24;-4.80;99.90
71142;DHT22;58808;59.366;17.970;2023-03-07T04:42:50;-4.80;99.90
71142;DHT22;58808;59.366;17.970;2023-03-07T04:45:16;-4.80;99.90
71142;DHT22;58808;59.366;17.970;2023-03-07T04:47:42;-4.80;99.90
71142;DHT22;58808;59.366;17.970;2023-03-07T04:50:08;-4.80;99.90
71142;DHT22;58808;59.366;17.970;2023-03-07T04:52:34;-4.70;99.90
71142;DHT22;58808;59.366;17.970;2023-03-07T04:55:00;-4.70;99.90
71142;DHT22;58808;59.366;17.970;2023-03-07T04:57:25;-4.70;99.90
71142;DHT22;58808;59.366;17.970;2023-03-07T04:59:51;-4.70;99.90
71142;DHT22;58808;59.366;17.970;2023-03-07T05:02:17;-4.70;99.90
71142;DHT22;58808;59.366;17.970;2023-03-07T05:04:43;-4.70;99.90
71142;DHT22;58808;59.366;17.970;2023-03-07T05:07:09;-4.70;99.90
71142;DHT22;58808;59.366;17.970;2023-03-07T05:09:35;-4.60;99.90
71142;DHT22;58808;59.366;17.970;2023-03-07T05:12:00;-4.60;99.90
71142;DHT22;58808;59.366;17.970;2023-03-07T05:14:26;-4.60;99.90
71142;DHT22;58808;59.366;17.970;2023-03-07T05:16:52;-4.60;99.90
71142;DHT22;58808;59.366;17.970;2023-03-07T05:19:18;-4.60;99.90
71142;DHT22;58808;59.366;17.970;2023-03-07T05:21:43;-4.60;99.90
71142;DHT22;58808;59.366;17.970;2023-03-07T05:24:10;-4.60;99.90
71142;DHT22;58808;59.366;17.970;2023-03-07T05:26:35;-4.60;99.90
71142;DHT22;58808;59.366;17.970;2023-03-07T05:29:01;-4.70;99.90
71142;DHT22;58808;59.366;17.970;2023-03-07T05:31:27;-4.70;99.90
71142;DHT22;58808;59.366;17.970;2023-03-07T05:33:53;-4.60;99.90
71142;DHT22;58808;59.366;17.970;2023-03-07T05:36:19;-4.60;99.90
71142;DHT22;58808;59.366;17.970;2023-03-07T05:38:44;-4.60;99.90
71142;DHT22;58808;59.366;17.970;2023-03-07T05:41:10;-4.60;99.90
71142;DHT22;58808;59.366;17.970;2023-03-07T05:43:37;-4.70;99.90
71142;DHT22;58808;59.366;17.970;2023-03-07T05:46:03;-4.70;99.90
71142;DHT22;58808;59.366;17.970;2023-03-07T05:48:28;-4.70;99.90
71142;DHT22;58808;59.366;17.970;2023-03-07T05:50:58;-4.70;99.90
71142;DHT22;58808;59.366;17.970;2023-03-07T05:53:25;-4.60;99.90
71142;DHT22;58808;59.366;17.970;2023-03-07T05:55:50;-4.70;99.90
71142;DHT22;58808;59.366;17.970;2023-03-07T05:58:16;-4.70;99.90
71142;DHT22;58808;59.366;17.970;2023-03-07T06:00:42;-4.70;99.90
71142;DHT22;58808;59.366;17.970;2023-03-07T06:03:08;-4.70;99.90
71142;DHT22;58808;59.366;17.970;2023-03-07T06:05:33;-4.80;99.90
71142;DHT22;58808;59.366;17.970;2023-03-07T06:07:59;-4.80;99.90
71142;DHT22;58808;59.366;17.970;2023-03-07T06:10:25;-4.80;99.90
71142;DHT22;58808;59.366;17.970;2023-03-07T06:12:52;-4.80;99.90
71142;DHT22;58808;59.366;17.970;2023-03-07T06:15:19;-4.70;99.90
71142;DHT22;58808;59.366;17.970;2023-03-07T06:17:45;-4.60;99.90
71142;DHT22;58808;59.366;17.970;2023-03-07T06:20:11;-4.60;99.90
71142;DHT22;58808;59.366;17.970;2023-03-07T06:22:37;-4.50;99.90
71142;DHT22;58808;59.366;17.970;2023-03-07T06:25:07;-4.50;99.90
71142;DHT22;58808;59.366;17.970;2023-03-07T06:27:34;-4.40;99.90
71142;DHT22;58808;59.366;17.970;2023-03-07T06:30:00;-4.40;99.90
71142;DHT22;58808;59.366;17.970;2023-03-07T06:32:26;-4.30;99.90
71142;DHT22;58808;59.366;17.970;2023-03-07T06:34:52;-4.30;99.90
71142;DHT22;58808;59.366;17.970;2023-03-07T06:37:17;-4.30;99.90
71142;DHT22;58808;59.366;17.970;2023-03-07T06:39:43;-4.30;99.90
71142;DHT22;58808;59.366;17.970;2023-03-07T06:42:09;-4.20;99.90
71142;DHT22;58808;59.366;17.970;2023-03-07T06:44:35;-4.20;99.90
71142;DHT22;58808;59.366;17.970;2023-03-07T06:47:01;-4.10;99.90
71142;DHT22;58808;59.366;17.970;2023-03-07T06:49:26;-4.00;99.90
71142;DHT22;58808;59.366;17.970;2023-03-07T06:51:52;-4.00;99.90
71142;DHT22;58808;59.366;17.970;2023-03-07T06:54:18;-4.00;99.90
71142;DHT22;58808;59.366;17.970;2023-03-07T06:56:44;-4.00;99.90
71142;DHT22;58808;59.366;17.970;2023-03-07T06:59:10;-4.00;99.90
71142;DHT22;58808;59.366;17.970;2023-03-07T07:01:36;-4.00;99.90
71142;DHT22;58808;59.366;17.970;2023-03-07T07:04:02;-4.00;99.90
71142;DHT22;58808;59.366;17.970;2023-03-07T07:06:29;-4.00;99.90
71142;DHT22;58808;59.366;17.970;2023-03-07T07:08:55;-3.90;99.90
71142;DHT22;58808;59.366;17.970;2023-03-07T07:11:22;-3.90;99.90
71142;DHT22;58808;59.366;17.970;2023-03-07T07:13:48;-3.80;99.90
71142;DHT22;58808;59.366;17.970;2023-03-07T07:16:16;-3.80;99.90
71142;DHT22;58808;59.366;17.970;2023-03-07T07:18:42;-3.70;99.90
71142;DHT22;58808;59.366;17.970;2023-03-07T07:21:08;-3.60;99.90
71142;DHT22;58808;59.366;17.970;2023-03-07T07:23:34;-3.50;99.90
71142;DHT22;58808;59.366;17.970;2023-03-07T07:26:00;-3.50;99.90
71142;DHT22;58808;59.366;17.970;2023-03-07T07:28:26;-3.40;99.90
71142;DHT22;58808;59.366;17.970;2023-03-07T07:30:52;-3.30;99.90
71142;DHT22;58808;59.366;17.970;2023-03-07T07:33:17;-3.20;99.90
71142;DHT22;58808;59.366;17.970;2023-03-07T07:35:43;-3.00;99.90
71142;DHT22;58808;59.366;17.970;2023-03-07T07:38:09;-2.80;99.90
71142;DHT22;58808;59.366;17.970;2023-03-07T07:40:35;-2.50;99.90
71142;DHT22;58808;59.366;17.970;2023-03-07T07:43:01;-2.20;99.90
71142;DHT22;58808;59.366;17.970;2023-03-07T07:45:27;-2.00;99.90
71142;DHT22;58808;59.366;17.970;2023-03-07T07:47:53;-1.90;99.90
71142;DHT22;58808;59.366;17.970;2023-03-07T07:50:20;-1.80;99.90
71142;DHT22;58808;59.366;17.970;2023-03-07T07:52:47;-1.80;99.90
71142;DHT22;58808;59.366;17.970;2023-03-07T07:55:13;-1.80;99.90
71142;DHT22;58808;59.366;17.970;2023-03-07T07:57:40;-1.70;99.90
71142;DHT22;58808;59.366;17.970;2023-03-07T08:00:08;-1.60;99.90
71142;DHT22;58808;59.366;17.970;2023-03-07T08:02:34;-1.60;99.90
71142;DHT22;58808;59.366;17.970;2023-03-07T08:05:00;-1.50;99.90
71142;DHT22;58808;59.366;17.970;2023-03-07T08:07:26;-1.50;99.90
71142;DHT22;58808;59.366;17.970;2023-03-07T08:09:52;-1.50;99.90
71142;DHT22;58808;59.366;17.970;2023-03-07T08:12:18;-1.50;99.90
71142;DHT22;58808;59.366;17.970;2023-03-07T08:14:43;-1.40;99.90
71142;DHT22;58808;59.366;17.970;2023-03-07T08:17:09;-1.30;99.90
71142;DHT22;58808;59.366;17.970;2023-03-07T08:19:35;-1.30;99.90
71142;DHT22;58808;59.366;17.970;2023-03-07T08:22:01;-1.20;99.90
71142;DHT22;58808;59.366;17.970;2023-03-07T08:24:27;-1.20;99.90
71142;DHT22;58808;59.366;17.970;2023-03-07T08:26:53;-1.10;99.90
71142;DHT22;58808;59.366;17.970;2023-03-07T08:29:19;-1.10;99.90
71142;DHT22;58808;59.366;17.970;2023-03-07T08:31:45;-1.10;99.90
71142;DHT22;58808;59.366;17.970;2023-03-07T08:34:11;-1.00;99.90
71142;DHT22;58808;59.366;17.970;2023-03-07T08:36:37;-1.00;99.90
71142;DHT22;58808;59.366;17.970;2023-03-07T08:39:04;-1.10;99.90
71142;DHT22;58808;59.366;17.970;2023-03-07T08:41:30;-1.10;99.90
71142;DHT22;58808;59.366;17.970;2023-03-07T08:43:56;-1.10;99.90
71142;DHT22;58808;59.366;17.970;2023-03-07T08:46:22;-1.10;99.90
71142;DHT22;58808;59.366;17.970;2023-03-07T08:48:48;-1.00;99.90
71142;DHT22;58808;59.366;17.970;2023-03-07T08:51:15;-1.10;99.90
71142;DHT22;58808;59.366;17.970;2023-03-07T08:53:43;-1.10;99.90
71142;DHT22;58808;59.366;17.970;2023-03-07T08:56:14;-1.10;99.90
71142;DHT22;58808;59.366;17.970;2023-03-07T08:58:40;-1.00;99.90
71142;DHT22;58808;59.366;17.970;2023-03-07T09:01:06;-1.00;99.90
71142;DHT22;58808;59.366;17.970;2023-03-07T09:03:34;-1.00;99.90
71142;DHT22;58808;59.366;17.970;2023-03-07T09:06:00;-0.90;99.90
71142;DHT22;58808;59.366;17.970;2023-03-07T09:08:26;-0.80;99.90
71142;DHT22;58808;59.366;17.970;2023-03-07T09:10:52;-0.70;99.90
71142;DHT22;58808;59.366;17.970;2023-03-07T09:13:18;-0.60;99.90
71142;DHT22;58808;59.366;17.970;2023-03-07T09:15:44;-0.60;99.90
71142;DHT22;58808;59.366;17.970;2023-03-07T09:18:10;-0.60;99.90
71142;DHT22;58808;59.366;17.970;2023-03-07T09:20:36;-0.60;99.90
71142;DHT22;58808;59.366;17.970;2023-03-07T09:23:03;-0.60;99.90
71142;DHT22;58808;59.366;17.970;2023-03-07T09:25:29;-0.60;99.90
71142;DHT22;58808;59.366;17.970;2023-03-07T09:27:54;-0.50;99.90
71142;DHT22;58808;59.366;17.970;2023-03-07T09:30:20;-0.50;99.90
71142;DHT22;58808;59.366;17.970;2023-03-07T09:32:48;-0.50;99.90
71142;DHT22;58808;59.366;17.970;2023-03-07T09:35:14;-0.50;99.90
71142;DHT22;58808;59.366;17.970;2023-03-07T09:37:40;-0.40;99.90
71142;DHT22;58808;59.366;17.970;2023-03-07T09:40:06;-0.30;99.90
71142;DHT22;58808;59.366;17.970;2023-03-07T09:50:51;0.00;99.90
71142;DHT22;58808;59.366;17.970;2023-03-07T09:53:40;0.00;99.90
71142;DHT22;58808;59.366;17.970;2023-03-07T09:56:29;0.10;99.90
71142;DHT22;58808;59.366;17.970;2023-03-07T09:59:16;0.10;99.90
71142;DHT22;58808;59.366;17.970;2023-03-07T10:02:25;0.10;99.90
71142;DHT22;58808;59.366;17.970;2023-03-07T10:04:50;0.10;99.90
71142;DHT22;58808;59.366;17.970;2023-03-07T10:07:21;0.20;99.90
71142;DHT22;58808;59.366;17.970;2023-03-07T10:09:52;0.30;99.60
71142;DHT22;58808;59.366;17.970;2023-03-07T10:12:30;0.30;99.60
71142;DHT22;58808;59.366;17.970;2023-03-07T10:17:40;0.20;86.60
71142;DHT22;58808;59.366;17.970;2023-03-07T10:25:39;0.10;82.10
71142;DHT22;58808;59.366;17.970;2023-03-07T10:28:18;0.10;83.60
71142;DHT22;58808;59.366;17.970;2023-03-07T10:30:47;0.10;83.10
71142;DHT22;58808;59.366;17.970;2023-03-07T10:33:18;0.10;82.70
71142;DHT22;58808;59.366;17.970;2023-03-07T10:36:12;0.10;82.90
71142;DHT22;58808;59.366;17.970;2023-03-07T10:38:48;0.10;82.00
71142;DHT22;58808;59.366;17.970;2023-03-07T10:41:18;0.20;82.00
71142;DHT22;58808;59.366;17.970;2023-03-07T10:43:46;0.20;80.00
71142;DHT22;58808;59.366;17.970;2023-03-07T10:46:23;0.20;79.20
71142;DHT22;58808;59.366;17.970;2023-03-07T10:49:01;0.20;79.40
71142;DHT22;58808;59.366;17.970;2023-03-07T10:52:00;0.30;82.30
71142;DHT22;58808;59.366;17.970;2023-03-07T10:54:33;0.40;82.70
71142;DHT22;58808;59.366;17.970;2023-03-07T10:57:11;0.40;82.50
71142;DHT22;58808;59.366;17.970;2023-03-07T10:59:41;0.50;80.70
71142;DHT22;58808;59.366;17.970;2023-03-07T11:02:25;0.40;77.40
71142;DHT22;58808;59.366;17.970;2023-03-07T11:04:52;0.40;78.40
71142;DHT22;58808;59.366;17.970;2023-03-07T11:07:30;0.40;78.90
71142;DHT22;58808;59.366;17.970;2023-03-07T11:09:58;0.40;77.20
71142;DHT22;58808;59.366;17.970;2023-03-07T11:12:26;0.40;79.70
71142;DHT22;58808;59.366;17.970;2023-03-07T11:15:20;0.40;78.50
71142;DHT22;58808;59.366;17.970;2023-03-07T11:17:49;0.40;76.50
71142;DHT22;58808;59.366;17.970;2023-03-07T11:20:24;0.40;75.50
71142;DHT22;58808;59.366;17.970;2023-03-07T11:23:18;0.40;74.30
71142;DHT22;58808;59.366;17.970;2023-03-07T11:25:47;0.40;74.80
71142;DHT22;58808;59.366;17.970;2023-03-07T11:28:31;0.40;75.10
71142;DHT22;58808;59.366;17.970;2023-03-07T11:36:34;0.50;74.70
71142;DHT22;58808;59.366;17.970;2023-03-07T11:39:12;0.50;75.20
71142;DHT22;58808;59.366;17.970;2023-03-07T11:41:51;0.50;74.40
71142;DHT22;58808;59.366;17.970;2023-03-07T11:50:22;0.60;71.40
71142;DHT22;58808;59.366;17.970;2023-03-07T11:58:40;0.60;71.50
71142;DHT22;58808;59.366;17.970;2023-03-07T12:23:44;0.60;70.90
71142;DHT22;58808;59.366;17.970;2023-03-07T12:31:53;0.60;73.00
71142;DHT22;58808;59.366;17.970;2023-03-07T12:34:38;0.60;72.80
71142;DHT22;58808;59.366;17.970;2023-03-07T12:37:10;0.60;72.30
71142;DHT22;58808;59.366;17.970;2023-03-07T12:40:03;0.60;71.20
71142;DHT22;58808;59.366;17.970;2023-03-07T12:43:17;0.40;70.40
71142;DHT22;58808;59.366;17.970;2023-03-07T12:45:25;0.40;71.50
71142;DHT22;58808;59.366;17.970;2023-03-07T12:48:55;0.40;72.20
71142;DHT22;58808;59.366;17.970;2023-03-07T12:54:29;0.50;71.40
71142;DHT22;58808;59.366;17.970;2023-03-07T12:56:48;0.50;72.40
71142;DHT22;58808;59.366;17.970;2023-03-07T12:59:18;0.50;73.70
71142;DHT22;58808;59.366;17.970;2023-03-07T13:02:13;0.50;74.30
71142;DHT22;58808;59.366;17.970;2023-03-07T13:04:41;0.50;75.10
71142;DHT22;58808;59.366;17.970;2023-03-07T13:09:41;0.50;74.50
71142;DHT22;58808;59.366;17.970;2023-03-07T13:15:05;0.50;76.50
71142;DHT22;58808;59.366;17.970;2023-03-07T13:27:53;0.50;78.40
71142;DHT22;58808;59.366;17.970;2023-03-07T13:30:20;0.50;79.70
71142;DHT22;58808;59.366;17.970;2023-03-07T13:48:12;0.50;79.60
71142;DHT22;58808;59.366;17.970;2023-03-07T13:51:05;0.40;79.60
71142;DHT22;58808;59.366;17.970;2023-03-07T13:53:45;0.40;79.60
71142;DHT22;58808;59.366;17.970;2023-03-07T14:01:33;0.40;80.70
71142;DHT22;58808;59.366;17.970;2023-03-07T14:06:40;0.40;83.30
71142;DHT22;58808;59.366;17.970;2023-03-07T14:09:11;0.40;85.40
71142;DHT22;58808;59.366;17.970;2023-03-07T14:19:47;0.30;91.80
71142;DHT22;58808;59.366;17.970;2023-03-07T14:25:18;0.20;94.10
71142;DHT22;58808;59.366;17.970;2023-03-07T14:27:57;0.10;96.10
71142;DHT22;58808;59.366;17.970;2023-03-07T14:30:26;0.10;97.40
71142;DHT22;58808;59.366;17.970;2023-03-07T14:32:53;0.10;99.80
71142;DHT22;58808;59.366;17.970;2023-03-07T14:35:54;0.00;99.90
71142;DHT22;58808;59.366;17.970;2023-03-07T14:38:22;0.00;99.90
71142;DHT22;58808;59.366;17.970;2023-03-07T14:40:58;-0.10;99.90
71142;DHT22;58808;59.366;17.970;2023-03-07T14:51:39;-0.30;99.90
71142;DHT22;58808;59.366;17.970;2023-03-07T14:54:14;-0.30;99.90
71142;DHT22;58808;59.366;17.970;2023-03-07T14:56:41;-0.30;99.90
71142;DHT22;58808;59.366;17.970;2023-03-07T14:59:07;-0.30;99.90
71142;DHT22;58808;59.366;17.970;2023-03-07T15:01:38;-0.30;99.90
71142;DHT22;58808;59.366;17.970;2023-03-07T15:06:45;-0.30;99.90
71142;DHT22;58808;59.366;17.970;2023-03-07T15:09:11;-0.30;99.90
71142;DHT22;58808;59.366;17.970;2023-03-07T15:11:40;-0.30;99.90
71142;DHT22;58808;59.366;17.970;2023-03-07T15:14:37;-0.40;99.90
71142;DHT22;58808;59.366;17.970;2023-03-07T15:17:10;-0.40;99.90
71142;DHT22;58808;59.366;17.970;2023-03-07T15:19:42;-0.40;99.90
71142;DHT22;58808;59.366;17.970;2023-03-07T15:24:50;-0.50;99.90
71142;DHT22;58808;59.366;17.970;2023-03-07T15:27:29;-0.50;99.90
71142;DHT22;58808;59.366;17.970;2023-03-07T15:29:56;-0.50;99.90
71142;DHT22;58808;59.366;17.970;2023-03-07T15:32:39;-0.50;99.90
71142;DHT22;58808;59.366;17.970;2023-03-07T15:35:11;-0.50;99.90
71142;DHT22;58808;59.366;17.970;2023-03-07T15:37:58;-0.50;99.90
71142;DHT22;58808;59.366;17.970;2023-03-07T15:40:26;-0.60;99.90
71142;DHT22;58808;59.366;17.970;2023-03-07T15:43:00;-0.60;99.90
71142;DHT22;58808;59.366;17.970;2023-03-07T15:45:40;-0.70;99.90
71142;DHT22;58808;59.366;17.970;2023-03-07T15:50:52;-0.80;99.90
71142;DHT22;58808;59.366;17.970;2023-03-07T15:53:24;-0.80;99.90
71142;DHT22;58808;59.366;17.970;2023-03-07T15:55:57;-0.80;99.90
71142;DHT22;58808;59.366;17.970;2023-03-07T15:58:24;-0.80;99.90
71142;DHT22;58808;59.366;17.970;2023-03-07T16:01:22;-0.90;99.90
71142;DHT22;58808;59.366;17.970;2023-03-07T16:03:52;-0.90;99.90
71142;DHT22;58808;59.366;17.970;2023-03-07T16:06:45;-0.90;99.90
71142;DHT22;58808;59.366;17.970;2023-03-07T16:09:16;-0.90;99.90
71142;DHT22;58808;59.366;17.970;2023-03-07T16:11:42;-0.90;99.90
71142;DHT22;58808;59.366;17.970;2023-03-07T16:14:29;-1.00;99.90
71142;DHT22;58808;59.366;17.970;2023-03-07T16:17:02;-1.00;99.90
71142;DHT22;58808;59.366;17.970;2023-03-07T16:19:30;-1.00;99.90
71142;DHT22;58808;59.366;17.970;2023-03-07T16:21:56;-0.90;99.90
71142;DHT22;58808;59.366;17.970;2023-03-07T16:24:22;-0.90;99.90
71142;DHT22;58808;59.366;17.970;2023-03-07T16:26:48;-0.90;99.90
71142;DHT22;58808;59.366;17.970;2023-03-07T16:29:16;-0.90;99.90
71142;DHT22;58808;59.366;17.970;2023-03-07T16:31:43;-1.00;99.90
71142;DHT22;58808;59.366;17.970;2023-03-07T16:34:20;-1.00;99.90
71142;DHT22;58808;59.366;17.970;2023-03-07T16:36:46;-1.00;99.90
71142;DHT22;58808;59.366;17.970;2023-03-07T16:39:13;-1.00;99.90
71142;DHT22;58808;59.366;17.970;2023-03-07T16:41:51;-1.00;99.90
71142;DHT22;58808;59.366;17.970;2023-03-07T16:44:19;-1.10;99.90
71142;DHT22;58808;59.366;17.970;2023-03-07T16:49:20;-1.10;99.90
71142;DHT22;58808;59.366;17.970;2023-03-07T16:51:46;-1.10;99.90
71142;DHT22;58808;59.366;17.970;2023-03-07T16:54:11;-1.10;99.90
71142;DHT22;58808;59.366;17.970;2023-03-07T16:56:43;-1.10;99.90
71142;DHT22;58808;59.366;17.970;2023-03-07T16:59:13;-1.10;99.90
71142;DHT22;58808;59.366;17.970;2023-03-07T17:01:41;-1.20;99.90
71142;DHT22;58808;59.366;17.970;2023-03-07T17:04:08;-1.10;99.90
71142;DHT22;58808;59.366;17.970;2023-03-07T17:06:34;-1.20;99.90
71142;DHT22;58808;59.366;17.970;2023-03-07T17:09:00;-1.20;99.90
71142;DHT22;58808;59.366;17.970;2023-03-07T17:11:27;-1.20;99.90
71142;DHT22;58808;59.366;17.970;2023-03-07T17:14:02;-1.20;99.90
71142;DHT22;58808;59.366;17.970;2023-03-07T17:16:28;-1.10;99.90
71142;DHT22;58808;59.366;17.970;2023-03-07T17:18:54;-1.10;99.90
71142;DHT22;58808;59.366;17.970;2023-03-07T17:21:21;-1.10;99.90
71142;DHT22;58808;59.366;17.970;2023-03-07T17:23:48;-1.10;99.90
71142;DHT22;58808;59.366;17.970;2023-03-07T17:28:43;-1.10;99.90
71142;DHT22;58808;59.366;17.970;2023-03-07T17:31:09;-1.10;99.90
71142;DHT22;58808;59.366;17.970;2023-03-07T17:33:35;-1.10;99.90
71142;DHT22;58808;59.366;17.970;2023-03-07T17:36:01;-1.10;99.90
71142;DHT22;58808;59.366;17.970;2023-03-07T17:38:30;-1.20;99.90
71142;DHT22;58808;59.366;17.970;2023-03-07T17:40:58;-1.20;99.90
71142;DHT22;58808;59.366;17.970;2023-03-07T17:43:24;-1.20;99.90
71142;DHT22;58808;59.366;17.970;2023-03-07T17:45:50;-1.20;99.90
71142;DHT22;58808;59.366;17.970;2023-03-07T17:48:15;-1.20;99.90
71142;DHT22;58808;59.366;17.970;2023-03-07T17:50:41;-1.20;99.90
71142;DHT22;58808;59.366;17.970;2023-03-07T17:53:07;-1.20;99.90
71142;DHT22;58808;59.366;17.970;2023-03-07T17:55:33;-1.20;99.90
71142;DHT22;58808;59.366;17.970;2023-03-07T17:57:59;-1.20;99.90
71142;DHT22;58808;59.366;17.970;2023-03-07T18:00:25;-1.20;99.90